createdAt,value
2023-04-26T00:00:55.541Z,21.73
2023-04-26T00:03:23.548Z,19.97
2023-04-26T00:05:51.006Z,23.40
2023-04-26T00:08:17.920Z,21.63
2023-04-26T00:10:45.017Z,23.20
2023-04-26T00:13:12.016Z,22.97
2023-04-26T00:15:39.276Z,20.17
2023-04-26T00:18:06.298Z,24.73
2023-04-26T00:20:33.403Z,21.83
2023-04-26T00:23:00.348Z,23.10
2023-04-26T00:25:27.502Z,19.67
2023-04-26T00:27:54.381Z,21.23
2023-04-26T00:30:22.547Z,18.13
2023-04-26T00:32:49.506Z,17.57
2023-04-26T00:35:16.818Z,18.43
2023-04-26T00:37:43.848Z,19.70
2023-04-26T00:40:11.746Z,17.40
2023-04-26T00:42:40.124Z,18.63
2023-04-26T00:45:07.778Z,20.50
2023-04-26T00:47:35.385Z,22.47
2023-04-26T00:50:03.600Z,22.20
2023-04-26T00:52:31.877Z,19.57
2023-04-26T00:54:59.142Z,21.05
2023-04-26T00:57:26.291Z,19.80
2023-04-26T00:59:53.497Z,19.37
2023-04-26T01:02:21.039Z,19.07
2023-04-26T01:04:48.489Z,21.80
2023-04-26T01:07:15.428Z,19.63
2023-04-26T01:09:44.175Z,23.20
2023-04-26T01:12:12.042Z,19.00
2023-04-26T01:14:40.096Z,20.30
2023-04-26T01:17:07.056Z,22.40
2023-04-26T01:19:37.524Z,21.37
2023-04-26T01:22:04.451Z,19.80
2023-04-26T01:24:33.106Z,19.03
2023-04-26T01:27:00.016Z,21.90
2023-04-26T01:29:27.489Z,19.40
2023-04-26T01:31:54.350Z,24.03
2023-04-26T01:34:21.842Z,23.37
2023-04-26T01:36:48.783Z,22.23
2023-04-26T01:39:16.054Z,20.97
2023-04-26T01:41:42.956Z,24.27
2023-04-26T01:44:10.171Z,22.70
2023-04-26T01:46:37.169Z,22.67
2023-04-26T01:49:04.398Z,22.93
2023-04-26T01:51:31.439Z,23.87
2023-04-26T01:53:58.703Z,24.70
2023-04-26T01:56:25.977Z,22.40
2023-04-26T01:58:53.414Z,21.40
2023-04-26T02:01:20.397Z,19.87
2023-04-26T02:03:49.334Z,21.30
2023-04-26T02:06:16.358Z,20.38
2023-04-26T02:08:43.493Z,21.77
2023-04-26T02:11:10.472Z,25.50
2023-04-26T02:13:38.232Z,21.53
2023-04-26T02:16:05.519Z,20.00
2023-04-26T02:18:32.645Z,22.43
2023-04-26T02:20:59.477Z,22.90
2023-04-26T02:23:26.641Z,20.77
2023-04-26T02:25:53.614Z,22.97
2023-04-26T02:28:21.123Z,23.03
2023-04-26T02:30:47.943Z,23.20
2023-04-26T02:33:15.143Z,23.43
2023-04-26T02:35:41.971Z,24.07
2023-04-26T02:38:09.223Z,21.77
2023-04-26T02:40:36.148Z,21.33
2023-04-26T02:43:03.599Z,23.00
2023-04-26T02:45:30.481Z,25.17
2023-04-26T02:47:57.679Z,25.43
2023-04-26T02:50:24.541Z,23.23
2023-04-26T02:52:51.747Z,23.50
2023-04-26T02:55:18.826Z,27.33
2023-04-26T02:57:45.965Z,26.40
2023-04-26T03:00:14.289Z,28.20
2023-04-26T03:02:42.079Z,30.85
2023-04-26T03:05:09.824Z,27.43
2023-04-26T03:07:37.354Z,30.17
2023-04-26T03:10:05.467Z,29.23
2023-04-26T03:12:32.632Z,29.20
2023-04-26T03:14:59.546Z,27.17
2023-04-26T03:17:26.908Z,26.73
2023-04-26T03:19:54.259Z,27.77
2023-04-26T03:22:21.414Z,29.63
2023-04-26T03:24:49.195Z,34.83
2023-04-26T03:27:16.636Z,23.37
2023-04-26T03:29:44.244Z,29.90
2023-04-26T03:32:11.740Z,27.17
2023-04-26T03:34:38.643Z,27.27
2023-04-26T03:37:05.758Z,25.60
2023-04-26T03:39:32.979Z,26.97
2023-04-26T03:42:00.226Z,27.50
2023-04-26T03:44:27.739Z,28.13
2023-04-26T03:46:56.472Z,19.88
2023-04-26T03:49:23.349Z,28.10
2023-04-26T03:51:50.816Z,25.27
2023-04-26T03:54:17.694Z,22.57
2023-04-26T03:56:44.868Z,23.77
2023-04-26T03:59:12.136Z,22.60
2023-04-26T04:01:39.289Z,15.80
2023-04-26T04:04:06.426Z,25.90
2023-04-26T04:06:33.621Z,19.13
2023-04-26T04:09:00.482Z,15.83
2023-04-26T04:11:27.704Z,19.70
2023-04-26T04:13:54.629Z,19.83
2023-04-26T04:16:21.977Z,22.10
2023-04-26T04:18:48.904Z,19.00
2023-04-26T04:21:16.559Z,21.93
2023-04-26T04:23:44.413Z,20.73
2023-04-26T04:26:12.692Z,22.73
2023-04-26T04:28:41.677Z,18.27
2023-04-26T04:31:11.795Z,19.77
2023-04-26T04:33:38.927Z,22.17
2023-04-26T04:36:06.930Z,17.00
2023-04-26T04:38:33.913Z,18.90
2023-04-26T04:41:01.116Z,18.67
2023-04-26T04:43:28.066Z,19.77
2023-04-26T04:45:55.740Z,17.27
2023-04-26T04:48:22.696Z,19.87
2023-04-26T04:50:50.477Z,20.50
2023-04-26T04:53:17.533Z,22.00
2023-04-26T04:55:44.920Z,19.37
2023-04-26T04:58:12.410Z,17.87
2023-04-26T05:00:39.778Z,17.77
2023-04-26T05:03:10.051Z,16.90
2023-04-26T05:05:37.494Z,14.20
2023-04-26T05:08:04.538Z,17.77
2023-04-26T05:10:31.789Z,15.27
2023-04-26T05:12:58.622Z,20.77
2023-04-26T05:15:25.804Z,19.20
2023-04-26T05:17:52.737Z,15.63
2023-04-26T05:20:20.007Z,20.40
2023-04-26T05:22:47.069Z,20.80
2023-04-26T05:25:14.333Z,16.03
2023-04-26T05:27:41.167Z,13.03
2023-04-26T05:30:08.870Z,16.97
2023-04-26T05:32:35.742Z,16.20
2023-04-26T05:35:03.166Z,16.43
2023-04-26T05:37:30.027Z,15.97
2023-04-26T05:39:57.392Z,15.93
2023-04-26T05:42:24.222Z,19.20
2023-04-26T05:44:51.371Z,17.85
2023-04-26T05:47:18.342Z,13.27
2023-04-26T05:49:45.487Z,11.83
2023-04-26T05:52:12.316Z,11.88
2023-04-26T05:54:39.491Z,13.90
2023-04-26T05:57:06.474Z,10.82
2023-04-26T05:59:36.749Z,15.57
2023-04-26T06:02:04.932Z,11.20
2023-04-26T06:04:32.820Z,14.15
2023-04-26T06:07:00.605Z,12.80
2023-04-26T06:09:27.894Z,12.20
2023-04-26T06:11:54.766Z,15.07
2023-04-26T06:14:30.027Z,16.52
2023-04-26T06:16:58.645Z,17.30
2023-04-26T06:19:25.886Z,14.93
2023-04-26T06:21:55.015Z,12.00
2023-04-26T06:24:23.441Z,13.98
2023-04-26T06:26:50.294Z,13.68
2023-04-26T06:29:17.658Z,13.15
2023-04-26T06:31:44.465Z,10.30
2023-04-26T06:34:11.608Z,16.42
2023-04-26T06:36:38.542Z,11.43
2023-04-26T06:39:06.303Z,17.42
2023-04-26T06:41:33.258Z,14.13
2023-04-26T06:44:00.489Z,12.73
2023-04-26T06:46:27.389Z,16.75
2023-04-26T06:48:55.529Z,13.48
2023-04-26T06:51:22.445Z,13.07
2023-04-26T06:53:49.651Z,9.77
2023-04-26T06:56:17.008Z,11.20
2023-04-26T06:59:04.244Z,12.50
2023-04-26T07:01:34.110Z,12.35
2023-04-26T07:04:07.923Z,13.38
2023-04-26T07:06:36.183Z,10.02
2023-04-26T07:09:03.896Z,10.20
2023-04-26T07:11:31.473Z,11.40
2023-04-26T07:13:58.601Z,8.60
2023-04-26T07:16:26.709Z,11.18
2023-04-26T07:18:53.982Z,11.50
2023-04-26T07:21:20.837Z,17.58
2023-04-26T07:23:47.899Z,22.60
2023-04-26T07:26:14.758Z,16.80
2023-04-26T07:28:42.020Z,20.20
2023-04-26T07:31:10.149Z,8.50
2023-04-26T07:33:38.360Z,7.55
2023-04-26T07:36:05.921Z,11.38
2023-04-26T07:38:33.047Z,12.63
2023-04-26T07:41:01.431Z,8.20
2023-04-26T07:43:28.611Z,15.05
2023-04-26T07:45:55.559Z,6.43
2023-04-26T07:48:22.807Z,9.95
2023-04-26T07:50:49.629Z,7.32
2023-04-26T07:53:16.736Z,8.05
2023-04-26T07:55:43.570Z,8.85
2023-04-26T07:58:14.608Z,10.02
2023-04-26T08:00:41.939Z,15.88
2023-04-26T08:03:09.409Z,9.23
2023-04-26T08:05:36.531Z,9.55
2023-04-26T08:08:04.241Z,11.43
2023-04-26T08:10:31.260Z,16.02
2023-04-26T08:12:58.386Z,18.35
2023-04-26T08:15:25.177Z,9.63
2023-04-26T08:17:53.478Z,9.18
2023-04-26T08:20:20.948Z,8.18
2023-04-26T08:22:48.061Z,8.23
2023-04-26T08:25:15.619Z,11.35
2023-04-26T08:27:44.917Z,13.85
2023-04-26T08:30:12.303Z,14.85
2023-04-26T08:32:39.452Z,11.35
2023-04-26T08:35:06.618Z,8.55
2023-04-26T08:37:33.824Z,10.68
2023-04-26T08:40:00.638Z,13.35
2023-04-26T08:42:28.944Z,10.93
2023-04-26T08:44:59.877Z,11.68
2023-04-26T08:47:40.253Z,12.60
2023-04-26T08:50:08.470Z,16.58
2023-04-26T08:52:35.617Z,13.30
2023-04-26T08:55:05.484Z,8.88
2023-04-26T08:57:35.692Z,13.55
2023-04-26T09:00:12.455Z,10.40
2023-04-26T09:02:57.459Z,11.15
2023-04-26T09:05:24.947Z,14.88
2023-04-26T09:07:57.016Z,10.35
2023-04-26T09:10:24.139Z,9.65
2023-04-26T09:12:55.124Z,7.35
2023-04-26T09:15:23.546Z,10.35
2023-04-26T09:17:51.918Z,18.70
2023-04-26T09:20:25.861Z,7.15
2023-04-26T09:23:15.879Z,10.93
2023-04-26T09:25:42.708Z,11.40
2023-04-26T09:28:22.752Z,7.85
2023-04-26T09:30:49.993Z,10.63
2023-04-26T09:33:17.253Z,8.25
2023-04-26T09:35:44.235Z,11.30
2023-04-26T09:38:13.528Z,11.48
2023-04-26T09:40:49.219Z,12.10
2023-04-26T09:43:21.580Z,9.73
2023-04-26T09:45:54.039Z,10.57
2023-04-26T09:48:26.328Z,11.30
2023-04-26T09:50:55.222Z,6.45
2023-04-26T09:53:31.742Z,8.27
2023-04-26T09:56:09.861Z,10.95
2023-04-26T09:58:39.129Z,6.03
2023-04-26T10:01:08.043Z,7.93
2023-04-26T10:06:04.320Z,6.45
2023-04-26T10:08:32.857Z,7.03
2023-04-26T10:11:02.315Z,7.50
2023-04-26T10:13:32.468Z,7.25
2023-04-26T10:16:01.546Z,7.45
2023-04-26T10:21:00.166Z,5.57
2023-04-26T10:23:27.837Z,5.32
2023-04-26T10:25:55.171Z,8.73
2023-04-26T10:28:40.482Z,8.73
2023-04-26T10:31:07.882Z,6.13
2023-04-26T10:33:35.189Z,7.30
2023-04-26T10:36:02.042Z,8.20
2023-04-26T10:38:29.358Z,5.00
2023-04-26T10:40:56.951Z,8.60
2023-04-26T10:43:30.458Z,5.10
2023-04-26T10:45:57.411Z,7.70
2023-04-26T10:48:31.849Z,7.25
2023-04-26T10:51:02.218Z,5.93
2023-04-26T10:53:45.574Z,8.73
2023-04-26T10:56:32.242Z,10.68
2023-04-26T10:59:33.362Z,8.52
2023-04-26T11:02:01.066Z,5.85
2023-04-26T11:04:52.442Z,6.85
2023-04-26T11:07:37.754Z,8.23
2023-04-26T11:10:12.018Z,10.57
2023-04-26T11:12:42.038Z,9.23
2023-04-26T11:15:09.425Z,8.55
2023-04-26T11:17:39.240Z,8.32
2023-04-26T11:20:10.195Z,9.60
2023-04-26T11:22:40.803Z,9.77
2023-04-26T11:25:08.045Z,4.75
2023-04-26T11:27:34.875Z,6.93
2023-04-26T11:30:05.393Z,6.90
2023-04-26T11:32:33.593Z,3.50
2023-04-26T11:35:01.275Z,7.05
2023-04-26T11:37:28.237Z,5.40
2023-04-26T11:39:57.460Z,5.32
2023-04-26T11:42:27.318Z,6.38
2023-04-26T11:44:59.390Z,4.93
2023-04-26T11:49:58.420Z,14.60
2023-04-26T11:52:26.594Z,10.27
2023-04-26T11:55:10.687Z,5.90
2023-04-26T11:57:37.708Z,6.53
2023-04-26T12:00:11.579Z,6.03
2023-04-26T12:02:38.748Z,5.82
2023-04-26T12:05:08.879Z,9.10
2023-04-26T12:07:37.774Z,7.55
2023-04-26T12:10:23.935Z,15.70
2023-04-26T12:12:52.121Z,7.88
2023-04-26T12:15:22.539Z,8.85
2023-04-26T12:17:53.890Z,7.28
2023-04-26T12:20:28.013Z,36.50
2023-04-26T12:23:21.193Z,10.45
2023-04-26T12:25:57.548Z,9.93
2023-04-26T12:28:25.039Z,4.95
2023-04-26T12:30:52.738Z,8.10
2023-04-26T12:33:22.863Z,6.38
2023-04-26T12:35:50.971Z,5.35
2023-04-26T12:38:21.003Z,8.65
2023-04-26T12:40:48.132Z,9.98
2023-04-26T12:43:16.767Z,6.25
2023-04-26T12:45:43.960Z,6.63
2023-04-26T12:48:11.897Z,5.28
2023-04-26T12:50:39.362Z,4.40
2023-04-26T12:53:06.261Z,4.78
2023-04-26T12:55:33.531Z,10.20
2023-04-26T12:58:00.647Z,6.95
2023-04-26T13:00:27.927Z,9.00
2023-04-26T13:02:55.719Z,6.53
2023-04-26T13:05:24.995Z,6.60
2023-04-26T13:07:52.095Z,7.00
2023-04-26T13:10:19.241Z,6.90
2023-04-26T13:12:46.238Z,3.65
2023-04-26T13:15:14.327Z,5.95
2023-04-26T13:17:43.132Z,9.15
2023-04-26T13:20:10.903Z,8.17
2023-04-26T13:22:39.486Z,4.47
2023-04-26T13:25:07.109Z,4.53
2023-04-26T13:27:33.949Z,6.50
2023-04-26T13:30:01.657Z,3.72
2023-04-26T13:32:29.588Z,5.75
2023-04-26T13:34:57.061Z,6.63
2023-04-26T13:37:24.010Z,8.57
2023-04-26T13:39:51.385Z,6.55
2023-04-26T13:42:18.567Z,8.10
2023-04-26T13:44:45.821Z,9.75
2023-04-26T13:47:12.739Z,6.53
2023-04-26T13:49:44.876Z,10.48
2023-04-26T13:52:12.120Z,5.80
2023-04-26T13:54:42.047Z,6.85
2023-04-26T13:57:09.141Z,5.75
2023-04-26T13:59:36.582Z,5.32
2023-04-26T14:02:03.893Z,5.30
2023-04-26T14:04:31.307Z,7.10
2023-04-26T14:06:58.921Z,3.50
2023-04-26T14:09:26.087Z,7.00
2023-04-26T14:12:00.862Z,4.35
2023-04-26T14:14:34.855Z,3.30
2023-04-26T14:17:01.797Z,4.80
2023-04-26T14:19:28.932Z,8.48
2023-04-26T14:21:55.882Z,8.82
2023-04-26T14:24:23.025Z,4.35
2023-04-26T14:26:49.958Z,3.92
2023-04-26T14:29:17.304Z,5.25
2023-04-26T14:31:45.172Z,5.88
2023-04-26T14:34:13.486Z,7.88
2023-04-26T14:36:40.713Z,6.63
2023-04-26T14:39:07.952Z,8.68
2023-04-26T14:41:34.825Z,6.57
2023-04-26T14:44:01.980Z,4.75
2023-04-26T14:46:28.900Z,5.47
2023-04-26T14:48:56.049Z,6.15
2023-04-26T14:51:22.868Z,7.40
2023-04-26T14:53:50.034Z,6.20
2023-04-26T14:56:17.112Z,5.22
2023-04-26T14:58:44.333Z,6.15
2023-04-26T15:01:11.235Z,7.88
2023-04-26T15:03:38.693Z,14.70
2023-04-26T15:06:05.998Z,7.07
2023-04-26T15:08:33.195Z,5.18
2023-04-26T15:11:01.023Z,3.25
2023-04-26T15:13:28.158Z,5.32
2023-04-26T15:15:55.005Z,7.35
2023-04-26T15:18:22.544Z,6.82
2023-04-26T15:20:49.444Z,10.02
2023-04-26T15:23:16.807Z,5.57
2023-04-26T15:25:43.873Z,7.30
2023-04-26T15:28:11.376Z,5.95
2023-04-26T15:30:38.207Z,6.85
2023-04-26T15:33:07.740Z,6.55
2023-04-26T15:38:01.934Z,7.50
2023-04-26T15:40:28.805Z,14.40
2023-04-26T15:42:56.044Z,7.03
2023-04-26T15:45:22.907Z,7.95
2023-04-26T15:47:50.080Z,13.68
2023-04-26T15:50:17.243Z,6.63
2023-04-26T15:52:44.426Z,8.00
2023-04-26T15:55:11.401Z,5.82
2023-04-26T15:57:42.097Z,8.75
2023-04-26T16:00:09.829Z,20.20
2023-04-26T16:02:37.414Z,12.95
2023-04-26T16:05:04.948Z,11.40
2023-04-26T16:07:32.470Z,9.23
2023-04-26T16:09:59.303Z,16.17
2023-04-26T16:12:26.470Z,8.40
2023-04-26T16:14:53.332Z,6.55
2023-04-26T16:17:20.696Z,10.30
2023-04-26T16:19:48.565Z,8.18
2023-04-26T16:22:15.912Z,9.20
2023-04-26T16:24:42.725Z,7.78
2023-04-26T16:27:10.066Z,12.32
2023-04-26T16:29:36.994Z,27.13
2023-04-26T16:32:04.199Z,11.77
2023-04-26T16:34:31.435Z,9.77
2023-04-26T16:36:58.640Z,12.80
2023-04-26T16:39:26.170Z,9.60
2023-04-26T16:41:53.964Z,10.50
2023-04-26T16:44:20.863Z,10.35
2023-04-26T16:46:48.028Z,9.50
2023-04-26T16:49:14.878Z,6.43
2023-04-26T16:51:44.420Z,12.88
2023-04-26T16:54:11.457Z,7.72
2023-04-26T16:56:38.597Z,11.27
2023-04-26T16:59:05.431Z,6.80
2023-04-26T17:01:32.680Z,6.85
2023-04-26T17:03:59.636Z,10.45
2023-04-26T17:06:26.918Z,12.63
2023-04-26T17:08:53.829Z,13.95
2023-04-26T17:11:21.112Z,9.63
2023-04-26T17:13:48.002Z,5.65
2023-04-26T17:16:15.268Z,11.38
2023-04-26T17:18:42.257Z,12.05
2023-04-26T17:21:09.429Z,9.30
2023-04-26T17:23:36.457Z,6.97
2023-04-26T17:26:04.467Z,14.07
2023-04-26T17:28:33.079Z,6.63
2023-04-26T17:31:00.700Z,10.80
2023-04-26T17:33:27.662Z,7.67
2023-04-26T17:35:54.826Z,10.17
2023-04-26T17:38:21.888Z,10.02
2023-04-26T17:40:53.863Z,11.27
2023-04-26T17:43:21.293Z,10.57
2023-04-26T17:45:48.532Z,11.32
2023-04-26T17:48:15.980Z,8.05
2023-04-26T17:50:43.220Z,8.57
2023-04-26T17:53:10.227Z,14.27
2023-04-26T17:55:37.894Z,9.80
2023-04-26T17:58:04.776Z,9.90
2023-04-26T18:00:32.246Z,13.27
2023-04-26T18:02:59.561Z,13.20
2023-04-26T18:05:26.846Z,18.80
2023-04-26T18:07:53.713Z,12.47
2023-04-26T18:10:22.028Z,10.03
2023-04-26T18:12:48.941Z,40.17
2023-04-26T18:15:16.205Z,15.80
2023-04-26T18:17:43.690Z,17.70
2023-04-26T18:20:13.126Z,31.73
2023-04-26T18:22:40.551Z,16.73
2023-04-26T18:25:08.039Z,16.17
2023-04-26T18:27:35.014Z,17.50
2023-04-26T18:30:02.294Z,16.90
2023-04-26T18:32:29.179Z,19.60
2023-04-26T18:34:56.330Z,16.70
2023-04-26T18:37:23.264Z,15.83
2023-04-26T18:39:50.491Z,14.23
2023-04-26T18:42:17.370Z,16.33
2023-04-26T18:44:44.571Z,18.57
2023-04-26T18:47:11.879Z,19.60
2023-04-26T18:49:39.079Z,16.80
2023-04-26T18:52:08.799Z,14.77
2023-04-26T18:54:38.402Z,24.83
2023-04-26T18:59:32.297Z,51.07
2023-04-26T19:01:59.209Z,66.87
2023-04-26T19:04:27.236Z,73.57
2023-04-26T19:06:54.249Z,67.50
2023-04-26T19:09:21.881Z,52.57
2023-04-26T19:11:49.093Z,82.73
2023-04-26T19:14:16.291Z,45.13
2023-04-26T19:16:43.997Z,56.63
2023-04-26T19:19:11.329Z,52.90
2023-04-26T19:21:38.261Z,56.57
2023-04-26T19:24:06.021Z,68.53
2023-04-26T19:26:32.962Z,68.27
2023-04-26T19:29:00.163Z,64.30
2023-04-26T19:31:27.938Z,76.80
2023-04-26T19:33:55.128Z,71.57
2023-04-26T19:36:22.040Z,54.87
2023-04-26T19:38:49.234Z,72.77
2023-04-26T19:41:16.150Z,73.50
2023-04-26T19:43:43.349Z,73.77
2023-04-26T19:46:14.140Z,64.73
2023-04-26T19:48:41.501Z,109.53
2023-04-26T19:51:08.566Z,102.77
2023-04-26T19:53:35.853Z,105.17
2023-04-26T19:56:03.355Z,104.70
2023-04-26T19:58:30.522Z,101.13
2023-04-26T20:00:57.475Z,88.87
2023-04-26T20:03:24.775Z,80.47
2023-04-26T20:05:51.937Z,77.97
2023-04-26T20:08:19.262Z,73.73
2023-04-26T20:10:46.320Z,76.67
2023-04-26T20:13:13.521Z,73.93
2023-04-26T20:15:40.442Z,68.60
2023-04-26T20:18:07.656Z,70.57
2023-04-26T20:20:34.554Z,67.47
2023-04-26T20:23:03.122Z,74.90
2023-04-26T20:25:30.013Z,68.40
2023-04-26T20:27:57.237Z,67.83
2023-04-26T20:30:24.190Z,59.20
2023-04-26T20:32:51.342Z,67.53
2023-04-26T20:35:18.327Z,61.10
2023-04-26T20:37:45.918Z,62.90
2023-04-26T20:40:12.833Z,77.97
2023-04-26T20:42:39.980Z,68.10
2023-04-26T20:45:07.593Z,61.03
2023-04-26T20:47:34.815Z,63.23
2023-04-26T20:50:01.689Z,58.97
2023-04-26T20:52:28.923Z,64.20
2023-04-26T20:54:57.263Z,63.17
2023-04-26T20:57:24.670Z,63.35
2023-04-26T20:59:51.481Z,60.60
2023-04-26T21:02:18.930Z,53.10
2023-04-26T21:04:46.211Z,50.60
2023-04-26T21:07:13.542Z,51.53
2023-04-26T21:09:40.455Z,51.37
2023-04-26T21:12:07.678Z,53.73
2023-04-26T21:14:34.485Z,53.53
2023-04-26T21:17:01.721Z,60.93
2023-04-26T21:19:28.569Z,86.33
2023-04-26T21:21:55.804Z,73.67
2023-04-26T21:24:22.793Z,71.63
2023-04-26T21:26:50.008Z,68.80
2023-04-26T21:29:17.163Z,56.70
2023-04-26T21:31:44.481Z,56.80
2023-04-26T21:34:11.509Z,53.73
2023-04-26T21:36:38.662Z,52.17
2023-04-26T21:39:05.752Z,49.07
2023-04-26T21:41:32.888Z,39.30
2023-04-26T21:43:59.716Z,37.03
2023-04-26T21:46:27.038Z,32.93
2023-04-26T21:48:54.077Z,36.10
2023-04-26T21:51:21.236Z,28.93
2023-04-26T21:53:49.323Z,36.17
2023-04-26T21:56:16.589Z,34.77
2023-04-26T21:58:43.530Z,30.83
2023-04-26T22:01:12.703Z,36.97
2023-04-26T22:03:40.094Z,40.25
2023-04-26T22:06:08.661Z,32.83
2023-04-26T22:08:35.915Z,31.20
2023-04-26T22:11:03.253Z,29.00
2023-04-26T22:13:31.403Z,35.97
2023-04-26T22:15:58.722Z,29.50
2023-04-26T22:18:26.513Z,28.10
2023-04-26T22:20:53.729Z,23.27
2023-04-26T22:23:21.210Z,31.50
2023-04-26T22:25:48.009Z,32.40
2023-04-26T22:28:16.047Z,34.90
2023-04-26T22:30:43.007Z,41.53
2023-04-26T22:33:12.331Z,60.83
2023-04-26T22:38:06.392Z,61.90
2023-04-26T22:40:33.404Z,56.30
2023-04-26T22:43:00.602Z,56.37
2023-04-26T22:45:27.584Z,71.70
2023-04-26T22:47:54.843Z,45.83
2023-04-26T22:50:22.156Z,49.17
2023-04-26T22:52:49.947Z,40.67
2023-04-26T22:55:17.535Z,30.90
2023-04-26T22:57:44.847Z,37.60
2023-04-26T23:00:12.826Z,29.53
2023-04-26T23:02:40.747Z,36.17
2023-04-26T23:05:10.274Z,34.27
2023-04-26T23:07:39.639Z,33.60
2023-04-26T23:10:07.026Z,33.08
2023-04-26T23:12:34.270Z,29.40
2023-04-26T23:15:01.956Z,29.47
2023-04-26T23:17:29.158Z,27.83
2023-04-26T23:19:56.527Z,23.60
2023-04-26T23:22:23.744Z,25.93
2023-04-26T23:24:50.814Z,20.77
2023-04-26T23:27:18.941Z,24.43
2023-04-26T23:29:45.954Z,22.10
2023-04-26T23:32:13.381Z,18.07
2023-04-26T23:34:40.288Z,21.87
2023-04-26T23:37:08.274Z,22.50
2023-04-26T23:39:36.308Z,20.97
2023-04-26T23:42:04.055Z,18.98
2023-04-26T23:44:30.994Z,18.27
2023-04-26T23:46:58.130Z,15.23
2023-04-26T23:49:25.559Z,19.47
2023-04-26T23:51:53.050Z,17.23
2023-04-26T23:54:19.943Z,18.30
2023-04-26T23:56:47.051Z,18.07
2023-04-26T23:59:14.320Z,18.70
